Time;durP1;ratioP1;P1;durP2;ratioP2;P2;SDS_P1;SDS_P2;PMS_P1;PMS_P2;Temp;Humidity;BMP_temperature;BMP_pressure;BME280_temperature;BME280_humidity;BME280_pressure;Samples;Min_cycle;Max_cycle;Signal;HPM_P1;HPM_P2
2022/10/11 00:01:00;;;;;;;;;;;12.80;99.90;;;;;;5043828;28;19909;-78
2022/10/11 00:03:26;;;;;;;;;;;12.80;99.90;;;;;;5063689;28;19982;-80
2022/10/11 00:05:52;;;;;;;;;;;12.80;99.90;;;;;;5062860;28;19915;-79
2022/10/11 00:08:18;;;;;;;;;;;12.80;99.90;;;;;;5046238;28;19952;-78
2022/10/11 00:10:44;;;;;;;;;;;12.80;99.90;;;;;;5027445;28;19924;-79
2022/10/11 00:13:09;;;;;;;;;;;12.80;99.90;;;;;;5059659;28;20422;-79
2022/10/11 00:15:37;;;;;;;;;;;12.90;99.90;;;;;;5042282;28;20292;-80
2022/10/11 00:18:03;;;;;;;;;;;12.80;99.90;;;;;;5041354;28;19913;-80
2022/10/11 00:20:29;;;;;;;;;;;12.80;99.90;;;;;;5027864;28;19915;-79
2022/10/11 00:22:55;;;;;;;;;;;12.80;99.90;;;;;;5042390;28;19956;-81
2022/10/11 00:25:20;;;;;;;;;;;12.80;99.90;;;;;;5068442;28;19974;-79
2022/10/11 00:27:46;;;;;;;;;;;12.90;99.90;;;;;;5049280;28;19939;-76
2022/10/11 00:30:12;;;;;;;;;;;12.90;99.90;;;;;;5065808;28;20396;-79
2022/10/11 00:32:38;;;;;;;;;;;12.90;99.90;;;;;;5043824;28;19917;-79
2022/10/11 00:35:05;;;;;;;;;;;12.90;99.90;;;;;;5061772;28;20285;-78
2022/10/11 00:37:31;;;;;;;;;;;12.90;99.90;;;;;;5058519;28;19913;-79
2022/10/11 00:39:57;;;;;;;;;;;12.80;99.90;;;;;;5057369;28;19909;-78
2022/10/11 00:42:23;;;;;;;;;;;12.80;99.90;;;;;;5057478;28;19917;-79
2022/10/11 00:44:49;;;;;;;;;;;12.90;99.90;;;;;;5057365;28;19909;-79
2022/10/11 00:47:16;;;;;;;;;;;12.90;99.90;;;;;;5058253;28;19912;-79
2022/10/11 00:49:47;;;;;;;;;;;12.90;99.90;;;;;;5062098;28;19909;-78
2022/10/11 00:52:15;;;;;;;;;;;12.90;99.90;;;;;;5042749;28;19913;-79
2022/10/11 00:54:42;;;;;;;;;;;12.90;99.90;;;;;;5058273;28;19913;-79
2022/10/11 00:57:10;;;;;;;;;;;12.90;99.90;;;;;;5056022;28;19917;-79
2022/10/11 00:59:38;;;;;;;;;;;12.90;99.90;;;;;;5059078;28;19921;-79
2022/10/11 01:02:05;;;;;;;;;;;12.90;99.90;;;;;;5041691;28;19956;-81
2022/10/11 01:04:31;;;;;;;;;;;12.90;99.90;;;;;;5040303;28;19908;-79
2022/10/11 01:06:57;;;;;;;;;;;12.90;99.90;;;;;;5038098;28;19913;-78
2022/10/11 01:09:23;;;;;;;;;;;12.90;99.90;;;;;;5056735;28;19908;-79
2022/10/11 01:11:50;;;;;;;;;;;12.90;99.90;;;;;;5039929;28;19916;-78
2022/10/11 01:14:34;;;;;;;;;;;12.90;99.90;;;;;;5059376;28;19915;-78
2022/10/11 01:17:09;;;;;;;;;;;12.90;99.90;;;;;;5024853;28;20023;-78
2022/10/11 01:19:53;;;;;;;;;;;12.90;99.90;;;;;;5060300;28;19990;-80
2022/10/11 01:22:37;;;;;;;;;;;12.90;99.90;;;;;;5021812;28;20000;-79
2022/10/11 01:25:03;;;;;;;;;;;12.90;99.90;;;;;;5055222;28;19913;-79
2022/10/11 01:27:38;;;;;;;;;;;13.00;99.90;;;;;;5056658;28;19915;-79
2022/10/11 01:30:30;;;;;;;;;;;13.00;99.90;;;;;;5058884;28;19920;-78
2022/10/11 01:32:59;;;;;;;;;;;13.00;99.90;;;;;;5033423;28;20364;-79
2022/10/11 01:35:44;;;;;;;;;;;13.00;99.90;;;;;;5043502;28;20404;-78
2022/10/11 01:38:15;;;;;;;;;;;12.90;99.90;;;;;;5050658;28;20029;-77
2022/10/11 01:40:47;;;;;;;;;;;12.90;99.90;;;;;;5063086;28;19913;-77
2022/10/11 01:43:14;;;;;;;;;;;12.80;99.90;;;;;;5044339;28;19913;-78
2022/10/11 01:45:40;;;;;;;;;;;12.80;99.90;;;;;;5027439;28;19916;-79
2022/10/11 01:48:07;;;;;;;;;;;12.80;99.90;;;;;;5054761;28;19995;-79
2022/10/11 01:50:39;;;;;;;;;;;12.70;99.90;;;;;;5053573;28;19909;-77
2022/10/11 01:53:26;;;;;;;;;;;12.70;99.90;;;;;;5054788;28;19913;-79
2022/10/11 01:55:54;;;;;;;;;;;12.70;99.90;;;;;;5054584;28;19917;-79
2022/10/11 01:58:31;;;;;;;;;;;12.70;99.90;;;;;;5036783;28;19909;-78
2022/10/11 02:01:00;;;;;;;;;;;12.60;99.90;;;;;;5054189;28;19920;-79
2022/10/11 02:03:37;;;;;;;;;;;12.60;99.90;;;;;;5038152;28;19919;-80
2022/10/11 02:06:20;;;;;;;;;;;12.60;99.90;;;;;;5058310;28;19920;-78
2022/10/11 02:08:45;;;;;;;;;;;12.50;99.90;;;;;;5061340;28;19917;-79
2022/10/11 02:11:17;;;;;;;;;;;12.60;99.90;;;;;;5048371;28;19924;-79
2022/10/11 02:14:00;;;;;;;;;;;12.50;99.90;;;;;;5065266;28;20436;-78
2022/10/11 02:16:30;;;;;;;;;;;12.50;99.90;;;;;;5058626;28;19917;-79
2022/10/11 02:18:57;;;;;;;;;;;12.50;99.90;;;;;;5041370;28;19909;-78
2022/10/11 02:21:23;;;;;;;;;;;12.50;99.90;;;;;;5067285;28;19916;-77
2022/10/11 02:23:52;;;;;;;;;;;12.50;99.90;;;;;;5070753;28;20396;-78
2022/10/11 02:26:19;;;;;;;;;;;12.50;99.90;;;;;;5050494;28;20023;-77
2022/10/11 02:28:46;;;;;;;;;;;12.60;99.90;;;;;;5034142;28;19908;-77
2022/10/11 02:31:14;;;;;;;;;;;12.50;99.90;;;;;;5061998;28;19920;-77
2022/10/11 02:33:42;;;;;;;;;;;12.50;99.90;;;;;;5040037;28;20380;-78
2022/10/11 02:36:15;;;;;;;;;;;12.50;99.90;;;;;;5042745;28;20024;-78
2022/10/11 02:38:44;;;;;;;;;;;12.50;99.90;;;;;;5059583;28;20261;-78
2022/10/11 02:41:20;;;;;;;;;;;12.50;99.90;;;;;;5058325;28;19920;-78
2022/10/11 02:43:58;;;;;;;;;;;12.50;99.90;;;;;;5064405;28;19913;-77
2022/10/11 02:46:25;;;;;;;;;;;12.50;99.90;;;;;;5067810;28;19913;-77
2022/10/11 02:48:50;;;;;;;;;;;12.50;99.90;;;;;;5043251;28;19909;-79
2022/10/11 02:51:17;;;;;;;;;;;12.50;99.90;;;;;;5062166;28;19912;-79
2022/10/11 02:53:42;;;;;;;;;;;12.50;99.90;;;;;;5044421;28;20379;-80
2022/10/11 02:56:08;;;;;;;;;;;12.50;99.90;;;;;;5041606;28;19917;-79
2022/10/11 02:58:34;;;;;;;;;;;12.50;99.90;;;;;;5059527;28;19979;-79
2022/10/11 03:00:59;;;;;;;;;;;12.50;99.90;;;;;;5063304;28;19912;-78
2022/10/11 03:03:25;;;;;;;;;;;12.50;99.90;;;;;;5059625;28;19909;-78
2022/10/11 03:05:56;;;;;;;;;;;12.50;99.90;;;;;;5042208;28;19936;-80
2022/10/11 03:08:22;;;;;;;;;;;12.50;99.90;;;;;;5064983;28;19920;-78
2022/10/11 03:10:47;;;;;;;;;;;12.50;99.90;;;;;;5053102;28;19920;-77
2022/10/11 03:13:13;;;;;;;;;;;12.50;99.90;;;;;;5071348;28;19913;-77
2022/10/11 03:15:39;;;;;;;;;;;12.50;99.90;;;;;;5072546;28;19924;-77
2022/10/11 03:18:04;;;;;;;;;;;12.50;99.90;;;;;;5069329;28;20262;-79
2022/10/11 03:20:30;;;;;;;;;;;12.50;99.90;;;;;;5064700;28;19999;-77
2022/10/11 03:22:56;;;;;;;;;;;12.50;99.90;;;;;;5067095;28;20368;-80
2022/10/11 03:25:21;;;;;;;;;;;12.50;99.90;;;;;;5045346;28;19916;-78
2022/10/11 03:27:47;;;;;;;;;;;12.50;99.90;;;;;;5046707;28;19920;-77
2022/10/11 03:30:12;;;;;;;;;;;12.50;99.90;;;;;;5075214;28;20424;-77
2022/10/11 03:32:38;;;;;;;;;;;12.50;99.90;;;;;;5060498;28;19917;-78
2022/10/11 03:35:04;;;;;;;;;;;12.50;99.90;;;;;;5047418;28;19921;-78
2022/10/11 03:37:30;;;;;;;;;;;12.50;99.90;;;;;;5040100;28;20335;-79
2022/10/11 03:39:55;;;;;;;;;;;12.50;99.90;;;;;;5056832;28;20350;-77
2022/10/11 03:42:21;;;;;;;;;;;12.50;99.90;;;;;;5057609;28;20466;-79
2022/10/11 03:44:50;;;;;;;;;;;12.50;99.90;;;;;;5041418;28;20005;-79
2022/10/11 03:47:16;;;;;;;;;;;12.50;99.90;;;;;;5039695;28;19913;-81
2022/10/11 03:49:41;;;;;;;;;;;12.50;99.90;;;;;;5056887;28;19915;-78
2022/10/11 03:52:07;;;;;;;;;;;12.50;99.90;;;;;;5056599;28;19913;-79
2022/10/11 03:54:32;;;;;;;;;;;12.40;99.90;;;;;;5057998;28;20491;-80
2022/10/11 03:56:58;;;;;;;;;;;12.40;99.90;;;;;;5060438;28;20442;-80
2022/10/11 03:59:24;;;;;;;;;;;12.40;99.90;;;;;;5060805;28;19909;-78
2022/10/11 04:01:49;;;;;;;;;;;12.40;99.90;;;;;;5024979;28;19967;-79
2022/10/11 04:04:15;;;;;;;;;;;12.40;99.90;;;;;;5042492;28;20388;-78
2022/10/11 04:06:41;;;;;;;;;;;12.40;99.90;;;;;;5060149;28;19920;-79
2022/10/11 04:09:06;;;;;;;;;;;12.40;99.90;;;;;;5061016;28;19909;-79
2022/10/11 04:11:32;;;;;;;;;;;12.50;99.90;;;;;;5044861;28;19943;-80
2022/10/11 04:13:58;;;;;;;;;;;12.50;99.90;;;;;;5042725;28;19916;-78
2022/10/11 04:16:24;;;;;;;;;;;12.50;99.90;;;;;;5065411;28;19917;-78
2022/10/11 04:18:49;;;;;;;;;;;12.50;99.90;;;;;;5064591;28;19916;-80
2022/10/11 04:21:15;;;;;;;;;;;12.50;99.90;;;;;;5063173;28;19913;-79
2022/10/11 04:23:40;;;;;;;;;;;12.60;99.90;;;;;;5063926;28;19909;-80
2022/10/11 04:26:07;;;;;;;;;;;12.60;99.90;;;;;;5060564;28;20003;-79
2022/10/11 04:28:33;;;;;;;;;;;12.60;99.90;;;;;;5058259;28;19913;-79
2022/10/11 04:30:59;;;;;;;;;;;12.60;99.90;;;;;;5041240;28;19971;-80
2022/10/11 04:33:24;;;;;;;;;;;12.60;99.90;;;;;;5058961;28;19908;-80
2022/10/11 04:35:54;;;;;;;;;;;12.60;99.90;;;;;;5040639;28;19917;-80
2022/10/11 04:38:21;;;;;;;;;;;12.50;99.90;;;;;;5041309;28;19913;-81
2022/10/11 04:40:47;;;;;;;;;;;12.60;99.90;;;;;;5045649;28;19987;-78
2022/10/11 04:43:15;;;;;;;;;;;12.50;99.90;;;;;;5063590;28;20000;-79
2022/10/11 04:45:41;;;;;;;;;;;12.50;99.90;;;;;;5059681;28;19909;-80
2022/10/11 04:48:07;;;;;;;;;;;12.50;99.90;;;;;;5058315;28;19913;-79
2022/10/11 04:50:32;;;;;;;;;;;12.50;99.90;;;;;;5061458;28;19908;-79
2022/10/11 04:52:58;;;;;;;;;;;12.50;99.90;;;;;;5046076;28;19955;-78
2022/10/11 04:55:23;;;;;;;;;;;12.40;99.90;;;;;;5062666;28;20003;-78
2022/10/11 04:57:49;;;;;;;;;;;12.40;99.90;;;;;;5061592;28;19913;-80
2022/10/11 05:00:15;;;;;;;;;;;12.30;99.90;;;;;;5060119;28;19924;-79
2022/10/11 05:02:41;;;;;;;;;;;12.30;99.90;;;;;;5060973;28;19960;-78
2022/10/11 05:05:07;;;;;;;;;;;12.30;99.90;;;;;;5033346;28;19957;-81
2022/10/11 05:07:32;;;;;;;;;;;12.20;99.90;;;;;;5060046;28;19976;-81
2022/10/11 05:09:58;;;;;;;;;;;12.20;99.90;;;;;;5080450;22;19942;-84
2022/10/11 05:12:24;;;;;;;;;;;12.10;99.90;;;;;;5049669;28;19928;-82
2022/10/11 05:14:49;;;;;;;;;;;12.10;99.90;;;;;;5053812;28;19967;-83
2022/10/11 05:17:15;;;;;;;;;;;12.10;99.90;;;;;;5056312;28;19955;-83
2022/10/11 05:19:41;;;;;;;;;;;12.10;99.90;;;;;;5057453;28;19924;-83
2022/10/11 05:22:06;;;;;;;;;;;12.00;99.90;;;;;;5076736;28;19969;-83
2022/10/11 05:24:32;;;;;;;;;;;12.00;99.90;;;;;;5077168;28;19932;-82
2022/10/11 05:26:58;;;;;;;;;;;12.00;99.90;;;;;;5076788;28;19905;-82
2022/10/11 05:29:23;;;;;;;;;;;12.00;99.90;;;;;;5076999;28;19901;-83
2022/10/11 05:31:49;;;;;;;;;;;12.00;99.90;;;;;;5074540;28;19917;-83
2022/10/11 05:34:14;;;;;;;;;;;12.00;99.90;;;;;;5067409;28;19972;-84
2022/10/11 05:36:40;;;;;;;;;;;12.00;99.90;;;;;;5072556;28;19932;-83
2022/10/11 05:39:06;;;;;;;;;;;12.00;99.90;;;;;;5077071;28;19928;-83
2022/10/11 05:41:31;;;;;;;;;;;12.00;99.90;;;;;;5077387;28;20151;-80
2022/10/11 05:43:57;;;;;;;;;;;11.90;99.90;;;;;;5076826;28;19987;-83
2022/10/11 05:46:23;;;;;;;;;;;11.90;99.90;;;;;;5077066;28;19905;-84
2022/10/11 05:48:48;;;;;;;;;;;11.90;99.90;;;;;;5076843;28;19912;-83
2022/10/11 05:51:14;;;;;;;;;;;11.90;99.90;;;;;;5076849;28;19916;-85
2022/10/11 05:53:40;;;;;;;;;;;11.90;99.90;;;;;;5077512;28;19911;-84
2022/10/11 05:56:15;;;;;;;;;;;11.90;99.90;;;;;;5077573;28;19916;-84
2022/10/11 05:58:41;;;;;;;;;;;11.90;99.90;;;;;;5077373;28;19912;-83
2022/10/11 06:01:14;;;;;;;;;;;12.00;99.90;;;;;;5077335;28;19936;-83
2022/10/11 06:03:39;;;;;;;;;;;11.90;99.90;;;;;;5076733;28;19928;-83
2022/10/11 06:06:05;;;;;;;;;;;12.00;99.90;;;;;;5076736;28;19908;-83
2022/10/11 06:08:32;;;;;;;;;;;12.00;99.90;;;;;;5075900;28;19905;-84
2022/10/11 06:10:58;;;;;;;;;;;12.10;99.90;;;;;;5076426;28;19953;-83
2022/10/11 06:13:23;;;;;;;;;;;12.20;99.90;;;;;;5076434;28;19912;-84
2022/10/11 06:15:49;;;;;;;;;;;12.20;99.90;;;;;;5075816;28;19951;-84
2022/10/11 06:18:15;;;;;;;;;;;12.30;99.90;;;;;;5074919;28;19939;-84
2022/10/11 06:20:41;;;;;;;;;;;12.40;99.90;;;;;;5075045;28;19912;-82
2022/10/11 06:23:06;;;;;;;;;;;12.50;99.90;;;;;;5075766;28;19927;-82
2022/10/11 06:25:32;;;;;;;;;;;12.60;99.90;;;;;;5074524;28;19923;-84
2022/10/11 06:27:57;;;;;;;;;;;12.80;99.90;;;;;;5074641;28;20339;-83
2022/10/11 06:30:23;;;;;;;;;;;12.90;99.90;;;;;;5075857;28;19901;-84
2022/10/11 06:32:49;;;;;;;;;;;13.10;99.90;;;;;;5076057;28;19923;-83
2022/10/11 06:35:14;;;;;;;;;;;13.30;99.90;;;;;;5075176;28;19921;-85
2022/10/11 06:37:40;;;;;;;;;;;13.40;99.90;;;;;;5074054;28;19967;-83
2022/10/11 06:40:06;;;;;;;;;;;13.60;99.90;;;;;;5073658;28;19913;-83
2022/10/11 06:42:32;;;;;;;;;;;13.60;99.90;;;;;;5072413;28;19917;-83
2022/10/11 06:44:57;;;;;;;;;;;13.60;99.90;;;;;;5072370;28;19908;-84
2022/10/11 06:47:23;;;;;;;;;;;13.70;99.90;;;;;;5069111;28;19968;-83
2022/10/11 06:49:48;;;;;;;;;;;13.70;99.90;;;;;;5067089;28;19909;-84
2022/10/11 06:52:14;;;;;;;;;;;13.60;99.90;;;;;;5067052;28;20296;-84
2022/10/11 06:54:40;;;;;;;;;;;13.70;99.90;;;;;;5075328;28;19980;-82
2022/10/11 06:57:05;;;;;;;;;;;13.70;99.90;;;;;;5070600;28;19913;-83
2022/10/11 06:59:31;;;;;;;;;;;13.70;99.90;;;;;;5070772;28;19932;-84
2022/10/11 07:01:57;;;;;;;;;;;13.70;99.90;;;;;;5073550;28;20312;-84
2022/10/11 07:04:22;;;;;;;;;;;13.70;99.90;;;;;;5072037;28;19999;-83
2022/10/11 07:06:48;;;;;;;;;;;13.70;99.90;;;;;;5069392;28;19913;-84
2022/10/11 07:09:13;;;;;;;;;;;13.60;99.90;;;;;;5068889;28;20003;-83
2022/10/11 07:11:39;;;;;;;;;;;13.70;99.90;;;;;;5071000;28;19917;-84
2022/10/11 07:14:06;;;;;;;;;;;13.70;99.90;;;;;;5069207;28;20372;-82
2022/10/11 07:16:33;;;;;;;;;;;13.60;99.90;;;;;;5067592;28;20134;-83
2022/10/11 07:19:00;;;;;;;;;;;13.60;99.90;;;;;;5068915;28;19968;-84
2022/10/11 07:21:26;;;;;;;;;;;13.50;99.90;;;;;;5068567;28;19941;-83
2022/10/11 07:23:52;;;;;;;;;;;13.60;99.90;;;;;;5069389;28;19912;-83
2022/10/11 07:26:18;;;;;;;;;;;13.70;99.90;;;;;;5071174;28;20000;-84
2022/10/11 07:28:44;;;;;;;;;;;13.90;99.90;;;;;;5070093;28;19916;-82
2022/10/11 07:31:14;;;;;;;;;;;13.90;99.90;;;;;;5073598;28;19917;-84
2022/10/11 07:33:40;;;;;;;;;;;13.90;99.90;;;;;;5079108;28;19940;-80
2022/10/11 07:36:06;;;;;;;;;;;14.10;99.90;;;;;;5072711;28;20027;-83
2022/10/11 07:38:32;;;;;;;;;;;14.20;99.90;;;;;;5068596;28;20096;-82
2022/10/11 07:40:58;;;;;;;;;;;14.30;99.90;;;;;;5077715;28;19968;-82
2022/10/11 07:43:23;;;;;;;;;;;14.50;99.90;;;;;;5076976;28;19901;-84
2022/10/11 07:45:53;;;;;;;;;;;14.60;99.90;;;;;;5076075;28;19920;-83
2022/10/11 07:48:19;;;;;;;;;;;14.80;99.90;;;;;;5066504;28;20007;-85
2022/10/11 07:50:45;;;;;;;;;;;14.80;99.90;;;;;;5071138;28;19909;-83
2022/10/11 07:53:10;;;;;;;;;;;14.90;99.90;;;;;;5071717;28;19943;-83
2022/10/11 07:55:40;;;;;;;;;;;15.00;99.90;;;;;;5070005;28;19977;-83
2022/10/11 07:58:10;;;;;;;;;;;15.10;99.90;;;;;;5069439;28;19912;-83
2022/10/11 08:00:36;;;;;;;;;;;15.20;99.90;;;;;;5072106;28;20000;-83
2022/10/11 08:03:05;;;;;;;;;;;15.30;99.90;;;;;;5068918;28;19917;-81
2022/10/11 08:05:31;;;;;;;;;;;15.30;99.90;;;;;;5070047;28;19909;-83
2022/10/11 08:07:57;;;;;;;;;;;15.50;99.90;;;;;;5071638;28;19956;-84
2022/10/11 08:10:23;;;;;;;;;;;15.70;99.90;;;;;;5070702;28;20345;-83
2022/10/11 08:12:49;;;;;;;;;;;15.90;99.90;;;;;;5065801;28;20305;-82
2022/10/11 08:15:15;;;;;;;;;;;16.00;99.90;;;;;;5064306;28;19924;-83
2022/10/11 08:17:40;;;;;;;;;;;16.20;99.90;;;;;;5069255;28;19913;-83
2022/10/11 08:20:06;;;;;;;;;;;16.40;99.90;;;;;;5069000;28;19960;-84
2022/10/11 08:22:32;;;;;;;;;;;16.60;99.90;;;;;;5068902;28;20010;-83
2022/10/11 08:24:57;;;;;;;;;;;16.70;99.90;;;;;;5068572;28;19962;-83
2022/10/11 08:27:23;;;;;;;;;;;16.80;99.90;;;;;;5071459;28;19924;-82
2022/10/11 08:29:49;;;;;;;;;;;16.90;99.90;;;;;;5072433;28;19943;-84
2022/10/11 08:32:14;;;;;;;;;;;17.00;99.90;;;;;;5067865;28;19917;-83
2022/10/11 08:34:40;;;;;;;;;;;17.10;99.90;;;;;;5069873;28;19916;-83
2022/10/11 08:37:06;;;;;;;;;;;17.30;99.90;;;;;;5074277;28;19917;-83
2022/10/11 08:39:31;;;;;;;;;;;17.60;99.90;;;;;;5076060;28;19980;-83
2022/10/11 08:42:12;;;;;;;;;;;18.10;99.90;;;;;;5077306;28;19901;-83
2022/10/11 08:44:41;;;;;;;;;;;18.70;99.90;;;;;;5075764;28;20022;-83
2022/10/11 08:47:10;;;;;;;;;;;20.30;99.90;;;;;;5064195;28;19909;-84
2022/10/11 08:49:36;;;;;;;;;;;21.00;99.90;;;;;;5066434;28;19955;-83
2022/10/11 08:52:03;;;;;;;;;;;21.80;99.90;;;;;;5071744;28;19909;-84
2022/10/11 08:54:32;;;;;;;;;;;22.60;99.90;;;;;;5069364;28;19923;-83
2022/10/11 08:56:59;;;;;;;;;;;23.60;99.90;;;;;;5065086;28;19909;-84
2022/10/11 08:59:30;;;;;;;;;;;24.60;99.90;;;;;;5064780;28;20011;-84
2022/10/11 09:02:18;;;;;;;;;;;25.20;99.50;;;;;;5065124;28;19913;-83
2022/10/11 09:04:46;;;;;;;;;;;26.00;98.40;;;;;;5057245;28;19913;-83
2022/10/11 09:07:30;;;;;;;;;;;27.00;95.90;;;;;;5064561;28;19908;-85
2022/10/11 09:10:08;;;;;;;;;;;27.40;94.60;;;;;;5063229;28;20292;-84
2022/10/11 09:12:34;;;;;;;;;;;27.70;93.70;;;;;;5067959;28;19909;-83
2022/10/11 09:15:08;;;;;;;;;;;28.20;92.60;;;;;;5074664;28;19928;-84
2022/10/11 09:17:53;;;;;;;;;;;29.10;91.10;;;;;;5065093;28;20280;-85
2022/10/11 09:20:27;;;;;;;;;;;29.50;90.20;;;;;;5064574;28;19913;-85
2022/10/11 09:23:03;;;;;;;;;;;30.60;86.80;;;;;;5064733;28;20369;-84
2022/10/11 09:25:29;;;;;;;;;;;31.00;83.90;;;;;;5067448;28;19913;-83
2022/10/11 09:28:01;;;;;;;;;;;31.10;82.40;;;;;;5071422;28;19962;-84
2022/10/11 09:30:27;;;;;;;;;;;31.30;81.30;;;;;;5068214;28;19913;-84
2022/10/11 09:33:11;;;;;;;;;;;31.50;79.40;;;;;;5069207;28;19909;-84
2022/10/11 09:35:39;;;;;;;;;;;32.10;78.10;;;;;;5070136;28;19920;-85
2022/10/11 09:38:10;;;;;;;;;;;32.30;76.70;;;;;;5076065;28;20194;-84
2022/10/11 09:40:42;;;;;;;;;;;32.50;75.50;;;;;;5077103;28;19955;-84
2022/10/11 09:43:08;;;;;;;;;;;32.70;74.90;;;;;;5076732;28;20399;-85
2022/10/11 09:45:34;;;;;;;;;;;32.60;73.70;;;;;;5075514;28;19937;-84
2022/10/11 09:48:01;;;;;;;;;;;32.50;73.40;;;;;;5069559;28;19913;-84
2022/10/11 09:50:29;;;;;;;;;;;32.60;72.90;;;;;;5069684;28;19916;-84
2022/10/11 09:52:56;;;;;;;;;;;32.30;73.00;;;;;;5076108;28;19923;-84
2022/10/11 09:55:51;;;;;;;;;;;32.00;73.20;;;;;;5072631;28;19988;-83
2022/10/11 09:58:31;;;;;;;;;;;31.90;72.60;;;;;;5058032;28;19948;-84
2022/10/11 10:00:58;;;;;;;;;;;31.90;72.50;;;;;;5067280;28;19945;-84
2022/10/11 10:03:29;;;;;;;;;;;32.10;72.40;;;;;;5066215;28;19896;-84
2022/10/11 10:06:06;;;;;;;;;;;32.20;72.10;;;;;;5065055;28;19968;-84
2022/10/11 10:08:31;;;;;;;;;;;32.60;71.10;;;;;;5064566;28;20384;-83
2022/10/11 10:11:06;;;;;;;;;;;32.60;70.80;;;;;;5064647;28;19917;-84
2022/10/11 10:13:51;;;;;;;;;;;33.10;70.10;;;;;;5065134;28;19979;-84
2022/10/11 10:16:18;;;;;;;;;;;33.10;69.30;;;;;;5066413;28;19956;-83
2022/10/11 10:18:53;;;;;;;;;;;32.90;69.40;;;;;;5067942;28;19913;-84
2022/10/11 10:21:24;;;;;;;;;;;32.50;69.40;;;;;;5067081;28;19924;-85
2022/10/11 10:23:51;;;;;;;;;;;32.50;69.70;;;;;;5066625;28;19913;-84
2022/10/11 10:26:21;;;;;;;;;;;32.20;69.70;;;;;;5067775;28;19999;-85
2022/10/11 10:28:56;;;;;;;;;;;32.50;69.30;;;;;;5067602;28;19924;-83
2022/10/11 10:31:42;;;;;;;;;;;32.90;69.30;;;;;;5069768;28;20365;-84
2022/10/11 10:34:12;;;;;;;;;;;33.10;68.50;;;;;;5060210;28;19976;-83
2022/10/11 10:36:42;;;;;;;;;;;32.60;68.80;;;;;;5070866;28;20292;-84
2022/10/11 10:39:12;;;;;;;;;;;32.70;68.50;;;;;;5070277;28;19908;-84
2022/10/11 10:41:38;;;;;;;;;;;32.80;67.60;;;;;;5071606;28;19927;-85
2022/10/11 10:44:04;;;;;;;;;;;32.80;68.10;;;;;;5076212;28;19913;-84
2022/10/11 10:46:29;;;;;;;;;;;33.00;68.20;;;;;;5070903;28;19967;-85
2022/10/11 10:49:07;;;;;;;;;;;33.10;67.50;;;;;;5070455;28;19909;-84
2022/10/11 10:51:39;;;;;;;;;;;33.50;66.80;;;;;;5071965;28;19948;-85
2022/10/11 10:54:30;;;;;;;;;;;33.80;66.50;;;;;;5079808;28;19912;-85
2022/10/11 10:57:01;;;;;;;;;;;34.00;66.10;;;;;;5070579;28;20027;-84
2022/10/11 10:59:45;;;;;;;;;;;34.20;65.70;;;;;;5069400;28;19951;-85
2022/10/11 11:02:22;;;;;;;;;;;34.80;65.10;;;;;;5072182;28;19912;-85
2022/10/11 11:04:57;;;;;;;;;;;34.90;64.10;;;;;;5075333;28;19913;-84
2022/10/11 11:07:29;;;;;;;;;;;34.20;64.70;;;;;;5075335;28;19927;-84
2022/10/11 11:13:14;;;;;;;;;;;34.80;63.40;;;;;;4981567;28;20351;-79
2022/10/11 11:15:46;;;;;;;;;;;34.90;63.10;;;;;;4988354;28;19918;-81
2022/10/11 11:18:24;;;;;;;;;;;34.70;63.20;;;;;;4991114;28;19925;-78
2022/10/11 11:21:09;;;;;;;;;;;34.60;63.10;;;;;;4994415;28;19937;-79
2022/10/11 11:23:53;;;;;;;;;;;34.80;62.80;;;;;;4991105;28;19977;-78
2022/10/11 11:26:24;;;;;;;;;;;34.90;61.60;;;;;;4982460;28;19918;-81
2022/10/11 11:28:55;;;;;;;;;;;35.20;61.00;;;;;;4980986;28;19914;-81
2022/10/11 11:31:21;;;;;;;;;;;35.50;60.90;;;;;;4966147;28;19960;-80
2022/10/11 11:33:46;;;;;;;;;;;35.90;59.60;;;;;;4993281;28;19906;-80
2022/10/11 11:36:14;;;;;;;;;;;36.30;59.40;;;;;;4983324;28;19915;-79
2022/10/11 11:38:55;;;;;;;;;;;36.00;59.10;;;;;;4989734;28;19915;-80
2022/10/11 11:41:39;;;;;;;;;;;35.70;58.60;;;;;;4979973;28;19941;-79
2022/10/11 11:44:05;;;;;;;;;;;35.60;58.30;;;;;;4965605;28;19985;-81
2022/10/11 11:46:46;;;;;;;;;;;36.10;57.50;;;;;;4984066;28;19964;-79
2022/10/11 11:49:41;;;;;;;;;;;36.30;57.20;;;;;;4983485;28;20195;-79
2022/10/11 11:52:11;;;;;;;;;;;36.70;56.40;;;;;;4970575;28;19914;-78
2022/10/11 11:54:48;;;;;;;;;;;36.40;55.80;;;;;;4972422;28;19914;-79
2022/10/11 11:57:28;;;;;;;;;;;36.20;56.10;;;;;;4984300;28;19914;-81
2022/10/11 12:00:14;;;;;;;;;;;36.10;56.10;;;;;;4980786;28;19914;-78
2022/10/11 12:02:43;;;;;;;;;;;36.10;56.00;;;;;;4979888;28;19921;-81
2022/10/11 12:05:11;;;;;;;;;;;36.60;55.50;;;;;;4980094;28;19910;-81
2022/10/11 12:07:49;;;;;;;;;;;36.60;55.10;;;;;;4978857;28;19914;-80
2022/10/11 12:10:35;;;;;;;;;;;36.90;54.60;;;;;;4980527;28;19938;-79
2022/10/11 12:13:07;;;;;;;;;;;36.80;54.60;;;;;;4979907;28;20440;-78
2022/10/11 12:15:32;;;;;;;;;;;37.00;54.00;;;;;;4963027;28;20275;-81
2022/10/11 12:18:01;;;;;;;;;;;36.90;53.70;;;;;;4962965;28;19921;-81
2022/10/11 12:20:40;;;;;;;;;;;36.90;53.20;;;;;;4967202;28;19914;-80
2022/10/11 12:23:18;;;;;;;;;;;36.50;53.50;;;;;;4986668;28;19956;-80
2022/10/11 12:25:44;;;;;;;;;;;36.50;53.60;;;;;;4986582;28;19920;-79
2022/10/11 12:28:28;;;;;;;;;;;36.10;53.90;;;;;;4985564;28;20000;-79
2022/10/11 12:31:01;;;;;;;;;;;34.70;54.20;;;;;;4964362;28;19926;-80
2022/10/11 12:33:31;;;;;;;;;;;32.80;55.10;;;;;;4981575;28;20013;-83
2022/10/11 12:35:59;;;;;;;;;;;31.00;57.00;;;;;;4980733;28;19953;-80
2022/10/11 12:38:25;;;;;;;;;;;29.30;59.00;;;;;;4980127;28;19921;-82
2022/10/11 12:40:55;;;;;;;;;;;28.10;61.00;;;;;;4961758;28;19910;-80
2022/10/11 12:43:26;;;;;;;;;;;27.10;62.80;;;;;;4964417;28;19921;-81
2022/10/11 12:45:52;;;;;;;;;;;26.30;64.40;;;;;;4970348;28;19922;-79
2022/10/11 12:48:32;;;;;;;;;;;25.80;65.70;;;;;;4986911;28;19961;-80
2022/10/11 12:51:07;;;;;;;;;;;25.30;66.60;;;;;;4987455;28;19918;-79
2022/10/11 12:53:44;;;;;;;;;;;25.00;67.00;;;;;;4987460;28;19925;-81
2022/10/11 12:56:13;;;;;;;;;;;24.80;67.30;;;;;;4987659;28;19957;-82
2022/10/11 12:58:42;;;;;;;;;;;24.60;68.10;;;;;;4983142;28;19914;-80
2022/10/11 13:01:16;;;;;;;;;;;24.50;67.80;;;;;;4947854;28;20337;-81
2022/10/11 13:03:43;;;;;;;;;;;24.40;68.50;;;;;;4963079;28;19921;-82
2022/10/11 13:06:25;;;;;;;;;;;24.20;69.00;;;;;;4980610;28;19910;-82
2022/10/11 13:08:53;;;;;;;;;;;24.00;69.70;;;;;;4964814;28;19914;-81
2022/10/11 13:11:22;;;;;;;;;;;23.90;69.90;;;;;;4982984;28;19918;-82
2022/10/11 13:13:55;;;;;;;;;;;23.70;70.80;;;;;;4967319;28;19945;-81
2022/10/11 13:16:23;;;;;;;;;;;23.40;71.50;;;;;;4990215;28;20369;-81
2022/10/11 13:18:52;;;;;;;;;;;23.20;71.60;;;;;;4987286;28;19954;-81
2022/10/11 13:21:24;;;;;;;;;;;23.20;71.70;;;;;;4988799;28;19945;-81
2022/10/11 13:23:53;;;;;;;;;;;23.00;72.70;;;;;;4988773;28;19914;-79
2022/10/11 13:26:19;;;;;;;;;;;22.70;73.40;;;;;;4988823;28;19906;-81
2022/10/11 13:28:45;;;;;;;;;;;22.60;73.60;;;;;;4970262;28;19941;-78
2022/10/11 13:31:11;;;;;;;;;;;22.60;72.80;;;;;;4987259;28;19910;-80
2022/10/11 13:33:39;;;;;;;;;;;22.50;73.20;;;;;;4966614;28;19914;-80
2022/10/11 13:36:07;;;;;;;;;;;22.40;73.70;;;;;;4987454;28;19914;-79
2022/10/11 13:38:34;;;;;;;;;;;22.40;74.50;;;;;;4987356;28;19942;-80
2022/10/11 13:41:02;;;;;;;;;;;22.30;75.30;;;;;;4988182;28;19961;-80
2022/10/11 13:43:29;;;;;;;;;;;22.10;76.70;;;;;;4989421;28;19929;-79
2022/10/11 13:45:57;;;;;;;;;;;22.10;76.80;;;;;;4972835;28;19998;-81
2022/10/11 13:48:23;;;;;;;;;;;21.80;77.70;;;;;;4989060;28;19914;-80
2022/10/11 13:51:10;;;;;;;;;;;21.50;79.20;;;;;;4989254;28;19921;-79
2022/10/11 13:53:36;;;;;;;;;;;21.50;79.60;;;;;;4988571;28;19976;-79
2022/10/11 13:56:03;;;;;;;;;;;21.50;79.70;;;;;;4988184;28;19910;-79
2022/10/11 13:58:34;;;;;;;;;;;21.60;79.20;;;;;;4968384;28;19918;-80
2022/10/11 14:01:02;;;;;;;;;;;21.70;77.60;;;;;;4985324;28;19949;-82
2022/10/11 14:03:36;;;;;;;;;;;21.70;77.40;;;;;;4969020;28;19910;-81
2022/10/11 14:06:02;;;;;;;;;;;21.70;77.20;;;;;;4989755;28;19914;-82
2022/10/11 14:08:28;;;;;;;;;;;21.70;77.10;;;;;;4970076;28;19941;-80
2022/10/11 14:10:54;;;;;;;;;;;21.70;77.50;;;;;;4970970;28;19915;-80
2022/10/11 14:13:19;;;;;;;;;;;21.60;78.10;;;;;;4983473;28;20014;-81
2022/10/11 14:15:45;;;;;;;;;;;21.60;78.30;;;;;;4967198;28;19938;-80
2022/10/11 14:18:43;;;;;;;;;;;21.70;78.50;;;;;;4985688;28;19914;-81
2022/10/11 14:21:18;;;;;;;;;;;21.70;78.50;;;;;;4938132;28;20294;-81
2022/10/11 14:23:50;;;;;;;;;;;21.60;78.70;;;;;;4991351;28;19953;-81
2022/10/11 14:26:16;;;;;;;;;;;21.50;79.00;;;;;;4990832;28;20310;-81
2022/10/11 14:28:42;;;;;;;;;;;21.40;79.00;;;;;;4989514;28;19925;-82
2022/10/11 14:31:09;;;;;;;;;;;21.30;79.00;;;;;;4972040;28;19926;-82